Time;durP1;ratioP1;P1;durP2;ratioP2;P2;SDS_P1;SDS_P2;PMS_P1;PMS_P2;Temp;Humidity;BMP_temperature;BMP_pressure;BME280_temperature;BME280_humidity;BME280_pressure;Samples;Min_cycle;Max_cycle;Signal;HPM_P1;HPM_P2
2022/07/27 00:01:36;;;;;;;7.47;2.08;;;;;;;14.37;100.00;101647.31;5077137;28;20028;-80
2022/07/27 00:04:02;;;;;;;6.72;2.15;;;;;;;14.24;100.00;101648.31;5075328;28;20048;-80
2022/07/27 00:06:28;;;;;;;6.60;2.13;;;;;;;14.23;100.00;101642.91;5054914;28;20474;-80
2022/07/27 00:08:54;;;;;;;7.68;2.47;;;;;;;14.27;100.00;101649.94;5048403;28;20046;-80
2022/07/27 00:11:19;;;;;;;7.47;2.08;;;;;;;14.29;100.00;101635.03;5073937;28;20051;-80
2022/07/27 00:13:45;;;;;;;4.93;1.70;;;;;;;14.29;100.00;101647.94;5064198;28;20029;-80
2022/07/27 00:16:11;;;;;;;6.45;2.00;;;;;;;14.39;100.00;101646.16;5071776;28;20077;-80
2022/07/27 00:18:37;;;;;;;4.90;1.95;;;;;;;14.37;100.00;101648.16;5041401;28;20033;-80
2022/07/27 00:21:03;;;;;;;5.82;2.55;;;;;;;14.27;100.00;101648.06;5075506;28;20067;-81
2022/07/27 00:23:28;;;;;;;4.75;1.63;;;;;;;14.21;100.00;101640.28;5076270;28;20033;-80
2022/07/27 00:25:54;;;;;;;6.10;1.70;;;;;;;14.29;100.00;101648.78;5055236;28;20037;-81
2022/07/27 00:28:19;;;;;;;6.80;1.75;;;;;;;14.21;100.00;101642.19;5073265;28;20079;-81
2022/07/27 00:30:45;;;;;;;3.80;2.40;;;;;;;14.19;100.00;101647.81;5062763;28;20044;-81
2022/07/27 00:33:10;;;;;;;9.88;2.20;;;;;;;14.19;100.00;101641.44;5079865;28;20045;-81
2022/07/27 00:35:37;;;;;;;5.13;2.17;;;;;;;14.16;100.00;101640.66;5057580;28;20056;-81
2022/07/27 00:38:02;;;;;;;6.28;1.92;;;;;;;14.19;100.00;101646.94;5073331;28;20028;-81
2022/07/27 00:40:28;;;;;;;8.65;2.00;;;;;;;14.13;100.00;101637.28;5061339;28;20068;-81
2022/07/27 00:42:53;;;;;;;4.88;1.80;;;;;;;14.07;100.00;101643.28;5079961;28;20020;-81
2022/07/27 00:45:19;;;;;;;5.63;2.38;;;;;;;13.97;100.00;101634.94;5053681;28;20063;-80
2022/07/27 00:47:45;;;;;;;8.13;2.30;;;;;;;13.93;100.00;101636.16;5067434;28;20041;-79
2022/07/27 00:50:10;;;;;;;7.85;2.28;;;;;;;13.91;100.00;101639.03;5064010;28;20076;-81
2022/07/27 00:52:37;;;;;;;8.05;2.20;;;;;;;13.88;100.00;101635.66;5078258;28;20036;-80
2022/07/27 00:55:03;;;;;;;4.43;1.90;;;;;;;13.82;100.00;101645.28;5079136;28;20037;-80
2022/07/27 00:57:29;;;;;;;8.43;2.45;;;;;;;13.72;100.00;101645.13;5076791;28;20036;-80
2022/07/27 00:59:54;;;;;;;7.75;2.15;;;;;;;13.68;100.00;101642.78;5061956;28;20035;-81
2022/07/27 01:02:20;;;;;;;9.02;2.08;;;;;;;13.55;100.00;101646.47;5079862;28;20380;-81
2022/07/27 01:04:46;;;;;;;9.02;2.10;;;;;;;13.50;100.00;101642.34;5074805;28;20032;-80
2022/07/27 01:07:12;;;;;;;7.22;2.40;;;;;;;13.45;100.00;101636.34;5039551;28;20558;-80
2022/07/27 01:09:55;;;;;;;5.28;2.30;;;;;;;13.52;100.00;101646.72;5029264;28;20041;-81
2022/07/27 01:12:22;;;;;;;7.68;2.35;;;;;;;13.54;100.00;101649.34;5078534;28;20028;-81
2022/07/27 01:14:50;;;;;;;8.70;3.05;;;;;;;13.42;100.00;101645.69;5061446;28;20039;-81
2022/07/27 01:17:15;;;;;;;4.97;2.35;;;;;;;13.28;100.00;101635.75;5044380;28;20177;-81
2022/07/27 01:19:41;;;;;;;4.68;2.40;;;;;;;13.24;100.00;101639.72;5058854;28;20052;-81
2022/07/27 01:22:07;;;;;;;6.57;2.80;;;;;;;13.22;100.00;101639.84;5069924;28;20025;-79
2022/07/27 01:24:33;;;;;;;10.82;2.50;;;;;;;13.22;100.00;101639.84;5054948;28;20035;-79
2022/07/27 01:27:03;;;;;;;8.35;2.83;;;;;;;13.26;100.00;101647.88;5062945;28;20432;-81
2022/07/27 01:29:30;;;;;;;7.53;2.70;;;;;;;13.14;100.00;101649.69;5078922;28;20033;-80
2022/07/27 01:31:56;;;;;;;7.90;3.00;;;;;;;13.15;100.00;101648.69;5077676;28;20045;-81
2022/07/27 01:34:21;;;;;;;7.28;2.83;;;;;;;13.26;100.00;101647.88;5077542;28;20032;-80
2022/07/27 01:36:47;;;;;;;8.75;3.53;;;;;;;13.15;100.00;101644.09;5078023;28;20032;-81
2022/07/27 01:39:17;;;;;;;7.72;3.25;;;;;;;13.04;100.00;101639.41;5058440;28;20029;-80
2022/07/27 01:41:44;;;;;;;8.63;3.40;;;;;;;12.96;100.00;101643.75;5057483;28;20081;-81
2022/07/27 01:44:09;;;;;;;9.00;3.47;;;;;;;12.95;100.00;101645.59;5076954;28;20055;-81
2022/07/27 01:46:35;;;;;;;8.45;3.40;;;;;;;12.88;100.00;101633.34;5046330;28;20036;-82
2022/07/27 01:49:00;;;;;;;8.20;3.65;;;;;;;12.87;100.00;101639.81;5070165;28;20095;-81
2022/07/27 01:51:26;;;;;;;8.60;3.08;;;;;;;12.78;100.00;101637.78;5027993;28;20041;-81
2022/07/27 01:53:52;;;;;;;10.70;3.55;;;;;;;12.92;100.00;101644.97;5069523;28;20067;-81
2022/07/27 01:56:17;;;;;;;16.48;4.00;;;;;;;12.85;100.00;101644.56;5079378;28;20036;-81
2022/07/27 01:58:43;;;;;;;7.95;3.35;;;;;;;12.91;100.00;101649.59;5074313;28;20043;-81
2022/07/27 02:01:09;;;;;;;8.68;3.53;;;;;;;12.83;100.00;101643.81;5046084;28;20028;-80
2022/07/27 02:03:35;;;;;;;12.27;4.10;;;;;;;12.75;100.00;101643.50;5045348;28;20067;-81
2022/07/27 02:06:01;;;;;;;13.02;3.75;;;;;;;12.73;100.00;101638.13;5079122;28;20025;-81
2022/07/27 02:08:27;;;;;;;8.60;3.47;;;;;;;12.63;100.00;101643.44;5068289;28;20037;-81
2022/07/27 02:13:38;;;;;;;6.00;3.28;;;;;;;12.54;100.00;101638.63;5075437;28;20067;-79
2022/07/27 02:16:04;;;;;;;10.27;3.88;;;;;;;12.56;100.00;101641.25;5061841;28;20087;-81
2022/07/27 02:18:29;;;;;;;6.88;3.40;;;;;;;12.42;100.00;101623.09;5061623;28;20111;-80
2022/07/27 02:20:55;;;;;;;13.40;3.83;;;;;;;12.41;100.00;101629.56;5060168;28;20495;-80
2022/07/27 02:23:21;;;;;;;12.27;3.42;;;;;;;12.44;100.00;101635.69;5075989;28;20424;-79
2022/07/27 02:25:47;;;;;;;11.38;4.05;;;;;;;12.44;100.00;101632.94;5079792;28;20028;-79
2022/07/27 02:28:12;;;;;;;11.25;3.42;;;;;;;12.42;100.00;101632.19;5077949;28;20109;-80
2022/07/27 02:30:38;;;;;;;6.57;3.20;;;;;;;12.45;100.00;101636.59;5077713;28;20036;-80
2022/07/27 02:33:04;;;;;;;9.88;3.83;;;;;;;12.63;100.00;101632.44;5076400;28;20551;-80
2022/07/27 02:35:30;;;;;;;10.10;4.25;;;;;;;12.77;100.00;101630.53;5076932;28;20082;-81
2022/07/27 02:37:55;;;;;;;6.63;3.13;;;;;;;12.80;100.00;101624.78;5043354;28;20032;-79
2022/07/27 02:40:22;;;;;;;9.30;3.88;;;;;;;12.78;100.00;101624.03;5059353;28;20102;-80
2022/07/27 02:42:48;;;;;;;6.57;4.03;;;;;;;12.65;100.00;101621.34;5077541;28;20029;-81
2022/07/27 02:45:14;;;;;;;10.32;3.47;;;;;;;12.48;100.00;101622.63;5042557;28;20044;-81
2022/07/27 02:47:39;;;;;;;4.88;3.70;;;;;;;12.33;100.00;101621.91;5077624;28;20088;-81
2022/07/27 02:50:07;;;;;;;11.48;4.18;;;;;;;12.29;100.00;101621.22;5080853;28;20039;-81
2022/07/27 02:52:32;;;;;;;8.27;3.85;;;;;;;12.27;100.00;101623.22;5077539;28;20395;-81
2022/07/27 02:54:58;;;;;;;10.60;3.78;;;;;;;12.18;100.00;101620.28;5077403;28;20123;-80
2022/07/27 02:57:23;;;;;;;11.48;3.85;;;;;;;12.13;100.00;101616.03;5078067;28;20150;-81
2022/07/27 02:59:49;;;;;;;9.82;4.47;;;;;;;12.09;100.00;101621.84;5057909;28;20063;-81
2022/07/27 03:02:14;;;;;;;12.35;3.72;;;;;;;12.01;100.00;101625.13;5075080;28;20444;-81
2022/07/27 03:04:40;;;;;;;7.97;3.72;;;;;;;11.97;100.00;101625.47;5043587;28;20059;-81
2022/07/27 03:07:07;;;;;;;10.90;4.47;;;;;;;11.95;100.00;101621.00;5078640;28;20036;-81
2022/07/27 03:09:34;;;;;;;8.02;3.92;;;;;;;11.90;100.00;101619.50;5076453;28;20063;-81
2022/07/27 03:12:00;;;;;;;8.35;4.18;;;;;;;11.86;100.00;101624.34;5078128;28;20029;-81
2022/07/27 03:14:25;;;;;;;5.43;4.03;;;;;;;11.79;100.00;101620.31;5060264;28;20036;-80
2022/07/27 03:16:51;;;;;;;7.18;3.92;;;;;;;11.72;100.00;101613.50;5078988;28;20051;-81
2022/07/27 03:19:16;;;;;;;10.65;4.65;;;;;;;11.77;100.00;101628.66;5060915;28;20041;-81
2022/07/27 03:21:42;;;;;;;9.98;4.38;;;;;;;11.60;100.00;101609.75;5057068;28;20495;-81
2022/07/27 03:24:08;;;;;;;9.60;3.85;;;;;;;11.63;100.00;101609.56;5057575;28;20052;-81
2022/07/27 03:26:33;;;;;;;17.10;4.95;;;;;;;11.73;100.00;101618.00;5042666;28;20083;-81
2022/07/27 03:28:59;;;;;;;5.82;3.70;;;;;;;11.79;100.00;101617.56;5045676;28;20035;-81
2022/07/27 03:31:24;;;;;;;7.28;3.78;;;;;;;11.88;100.00;101624.25;5045333;28;20438;-80
2022/07/27 03:33:50;;;;;;;11.45;3.78;;;;;;;11.91;100.00;101624.03;5079011;28;20068;-81
2022/07/27 03:36:15;;;;;;;7.35;3.92;;;;;;;11.92;100.00;101626.69;5064465;28;20035;-82
2022/07/27 03:38:41;;;;;;;10.77;3.55;;;;;;;11.81;100.00;101622.94;5079721;28;20040;-81
2022/07/27 03:41:06;;;;;;;6.22;3.83;;;;;;;11.73;100.00;101624.34;5047222;28;20036;-82
2022/07/27 03:43:32;;;;;;;12.20;4.30;;;;;;;11.73;100.00;101629.84;5080593;28;20059;-82
2022/07/27 03:45:58;;;;;;;9.25;3.88;;;;;;;11.68;100.00;101634.78;5064578;28;20055;-81
2022/07/27 03:48:23;;;;;;;6.57;4.00;;;;;;;11.77;100.00;101634.13;5098497;28;20474;-81
2022/07/27 03:50:49;;;;;;;8.38;4.05;;;;;;;11.92;100.00;101645.91;5052708;28;20055;-81
2022/07/27 03:53:16;;;;;;;7.22;3.50;;;;;;;12.01;100.00;101649.84;5077803;28;20128;-81
2022/07/27 03:55:43;;;;;;;7.32;3.58;;;;;;;11.87;100.00;101642.59;5061868;28;20036;-81
2022/07/27 03:58:09;;;;;;;6.85;3.50;;;;;;;11.70;100.00;101653.88;5064655;28;20032;-80
2022/07/27 04:00:34;;;;;;;8.18;3.20;;;;;;;11.72;100.00;101650.06;5080526;28;20097;-81
2022/07/27 04:03:00;;;;;;;6.15;3.28;;;;;;;11.81;100.00;101645.75;5026483;28;20047;-81
2022/07/27 04:05:26;;;;;;;8.93;3.75;;;;;;;11.75;100.00;101637.97;5096750;28;20062;-81
2022/07/27 04:07:51;;;;;;;7.38;3.20;;;;;;;11.81;100.00;101648.50;5065715;28;20097;-83
2022/07/27 04:10:17;;;;;;;7.57;4.03;;;;;;;11.94;100.00;101643.06;5032546;28;20028;-82
2022/07/27 04:12:43;;;;;;;9.98;4.00;;;;;;;11.85;100.00;101635.44;5067265;28;20036;-82
2022/07/27 04:15:09;;;;;;;14.90;4.57;;;;;;;11.71;100.00;101636.44;5046676;28;20121;-82
2022/07/27 04:17:34;;;;;;;9.35;3.72;;;;;;;11.67;100.00;101634.88;5063907;28;20060;-82
2022/07/27 04:20:00;;;;;;;6.63;4.10;;;;;;;11.66;100.00;101635.88;5082945;28;20062;-82
2022/07/27 04:22:26;;;;;;;10.57;3.80;;;;;;;11.73;100.00;101642.69;5078838;28;20165;-81
2022/07/27 04:24:52;;;;;;;14.93;4.40;;;;;;;11.69;100.00;101643.88;5058737;28;20125;-79
2022/07/27 04:27:17;;;;;;;8.10;3.97;;;;;;;11.91;100.00;101648.72;5077062;28;20089;-80
2022/07/27 04:29:43;;;;;;;11.65;4.45;;;;;;;12.02;100.00;101650.72;5032832;28;20450;-79
2022/07/27 04:32:08;;;;;;;10.38;4.28;;;;;;;11.95;100.00;101645.69;5092682;28;20040;-79
2022/07/27 04:34:34;;;;;;;13.18;3.60;;;;;;;12.02;100.00;101651.59;5073114;28;20040;-79
2022/07/27 04:37:00;;;;;;;8.35;3.13;;;;;;;12.07;100.00;101646.66;5073947;28;20032;-79
2022/07/27 04:39:26;;;;;;;9.73;3.60;;;;;;;12.10;100.00;101651.03;5087799;28;20123;-78
2022/07/27 04:41:51;;;;;;;8.25;3.90;;;;;;;12.03;100.00;101645.09;5075856;28;20040;-79
2022/07/27 04:44:17;;;;;;;5.20;3.70;;;;;;;12.09;100.00;101649.28;5092418;28;20111;-80
2022/07/27 04:46:43;;;;;;;9.50;3.65;;;;;;;12.24;100.00;101659.13;5024986;28;20124;-80
2022/07/27 04:49:09;;;;;;;8.98;3.97;;;;;;;12.31;100.00;101657.72;5057262;28;20064;-79
2022/07/27 04:51:34;;;;;;;14.10;3.63;;;;;;;12.32;100.00;101658.59;5060184;28;20040;-79
2022/07/27 04:54:00;;;;;;;12.50;4.20;;;;;;;12.25;100.00;101663.66;5060397;28;20115;-80
2022/07/27 04:56:26;;;;;;;7.70;4.05;;;;;;;12.29;100.00;101665.16;5079053;28;20040;-82
2022/07/27 04:58:52;;;;;;;7.18;3.60;;;;;;;12.42;100.00;101662.41;5031449;28;20038;-82
2022/07/27 05:01:17;;;;;;;12.68;4.28;;;;;;;12.52;100.00;101668.09;5064585;28;20096;-82
2022/07/27 05:03:43;;;;;;;10.20;4.45;;;;;;;12.42;100.00;101658.78;5072627;28;20036;-82
2022/07/27 05:06:09;;;;;;;9.70;4.28;;;;;;;12.51;100.00;101669.09;5061675;28;20052;-82
2022/07/27 05:08:35;;;;;;;8.98;4.10;;;;;;;12.56;100.00;101666.88;5086055;28;20047;-82
2022/07/27 05:11:01;;;;;;;6.18;4.43;;;;;;;12.66;100.00;101662.44;5081467;28;20039;-82
2022/07/27 05:13:26;;;;;;;13.02;4.65;;;;;;;12.64;100.00;101667.19;5060685;28;20040;-82
2022/07/27 05:15:52;;;;;;;12.73;5.45;;;;;;;12.66;100.00;101675.31;5092804;28;20028;-82
2022/07/27 05:18:17;;;;;;;14.10;5.07;;;;;;;12.73;100.00;101673.84;5047527;28;20025;-82
2022/07/27 05:20:43;;;;;;;11.23;4.78;;;;;;;12.81;100.00;101668.66;5049800;28;20067;-82
2022/07/27 05:23:10;;;;;;;9.63;4.43;;;;;;;13.03;100.00;101667.00;5060542;28;20040;-82
2022/07/27 05:25:36;;;;;;;13.30;5.28;;;;;;;12.96;100.00;101679.47;5059118;28;20111;-82
2022/07/27 05:28:02;;;;;;;7.25;4.38;;;;;;;13.17;100.00;101676.97;5083950;28;20063;-82
2022/07/27 05:30:28;;;;;;;13.15;4.68;;;;;;;13.34;100.00;101672.94;5089473;28;20056;-81
2022/07/27 05:32:54;;;;;;;11.63;4.47;;;;;;;13.60;100.00;101673.66;5100089;28;20051;-82
2022/07/27 05:35:20;;;;;;;8.80;4.15;;;;;;;13.52;100.00;101674.22;5103723;28;20023;-81
2022/07/27 05:37:45;;;;;;;6.65;4.03;;;;;;;13.72;100.00;101674.53;5117872;28;20032;-81
2022/07/27 05:40:11;;;;;;;7.53;3.97;;;;;;;13.91;100.00;101679.47;5132089;28;20047;-80
2022/07/27 05:42:39;;;;;;;12.38;3.90;;;;;;;14.02;100.00;101675.84;5100716;28;20016;-82
2022/07/27 05:45:06;;;;;;;11.50;3.83;;;;;;;14.13;100.00;101676.75;5077920;28;20054;-83
2022/07/27 05:47:31;;;;;;;9.00;4.20;;;;;;;14.32;100.00;101680.75;5048400;28;20059;-82
2022/07/27 05:49:56;;;;;;;5.80;3.20;;;;;;;14.78;100.00;101682.47;5064585;28;20041;-83
2022/07/27 05:52:22;;;;;;;6.53;3.17;;;;;;;14.83;100.00;101685.72;5069147;28;20040;-82
2022/07/27 05:54:47;;;;;;;13.60;3.50;;;;;;;14.73;100.00;101684.75;5083913;28;20062;-81
2022/07/27 05:57:14;;;;;;;8.38;3.47;;;;;;;15.34;100.00;101691.56;5069807;28;20432;-80
2022/07/27 05:59:40;;;;;;;10.13;3.15;;;;;;;15.51;100.00;101688.25;5049702;28;20043;-80
2022/07/27 06:02:07;;;;;;;12.02;3.17;;;;;;;15.95;100.00;101694.53;5035121;28;20028;-80
2022/07/27 06:04:33;;;;;;;7.60;2.65;;;;;;;15.62;100.00;101690.91;5079211;28;20062;-80
2022/07/27 06:09:43;;;;;;;11.35;2.70;;;;;;;16.10;100.00;101694.16;5080286;28;20479;-80
2022/07/27 06:12:08;;;;;;;7.72;2.28;;;;;;;16.17;100.00;101693.47;5060974;28;20064;-79
2022/07/27 06:14:34;;;;;;;9.88;2.78;;;;;;;16.38;100.00;101687.03;5063408;28;20047;-78
2022/07/27 06:16:59;;;;;;;9.88;2.63;;;;;;;17.06;100.00;101695.56;5062500;28;20040;-79
2022/07/27 06:19:25;;;;;;;6.25;2.25;;;;;;;17.35;100.00;101700.25;5058222;28;20041;-78
2022/07/27 06:21:50;;;;;;;9.43;2.30;;;;;;;17.42;100.00;101700.53;5078866;28;20055;-78
2022/07/27 06:24:16;;;;;;;7.32;2.42;;;;;;;17.44;100.00;101701.25;5096301;28;20029;-79
2022/07/27 06:26:43;;;;;;;5.28;1.73;;;;;;;18.27;100.00;101697.97;5060988;28;20035;-78
2022/07/27 06:29:08;;;;;;;3.50;1.75;;;;;;;17.75;100.00;101706.66;5060897;28;20491;-80
2022/07/27 06:31:34;;;;;;;8.07;1.90;;;;;;;17.77;100.00;101704.59;5043893;28;20063;-79
2022/07/27 06:34:00;;;;;;;5.53;1.38;;;;;;;18.49;100.00;101703.09;5077151;28;20032;-80
2022/07/27 06:36:25;;;;;;;6.35;1.63;;;;;;;18.06;100.00;101710.13;5079803;28;20028;-79
2022/07/27 06:38:51;;;;;;;9.07;1.58;;;;;;;18.33;100.00;101705.66;5080433;28;20043;-79
2022/07/27 06:41:16;;;;;;;5.57;1.30;;;;;;;18.85;100.00;101711.56;5030979;28;20032;-79
2022/07/27 06:43:42;;;;;;;4.82;1.50;;;;;;;18.89;100.00;101707.47;5080371;28;20059;-80
2022/07/27 06:46:11;;;;;;;4.25;1.30;;;;;;;19.08;100.00;101709.22;5098438;28;20031;-79
2022/07/27 06:48:38;;;;;;;5.72;1.48;;;;;;;19.47;100.00;101705.31;5062310;28;20045;-79
2022/07/27 06:51:04;;;;;;;8.82;1.20;;;;;;;19.37;100.00;101699.81;5080666;28;20087;-79
2022/07/27 06:53:29;;;;;;;9.15;1.40;;;;;;;18.80;100.00;101707.50;5076947;28;20149;-81
2022/07/27 06:55:57;;;;;;;6.85;1.58;;;;;;;19.32;100.00;101706.91;5061262;28;20024;-82
2022/07/27 06:58:22;;;;;;;6.50;1.38;;;;;;;19.57;100.00;101710.78;5080333;28;20035;-83
2022/07/27 07:00:48;;;;;;;4.90;1.40;;;;;;;19.36;100.00;101711.09;5063011;28;20448;-82
2022/07/27 07:03:13;;;;;;;11.07;1.58;;;;;;;19.51;100.00;101714.19;5061680;28;20551;-82
2022/07/27 07:05:44;;;;;;;6.90;1.52;;;;;;;19.51;100.00;101709.50;5062687;28;20044;-83
2022/07/27 07:08:11;;;;;;;9.30;1.30;;;;;;;19.79;100.00;101709.41;5074594;28;20096;-82
2022/07/27 07:10:38;;;;;;;2.08;0.95;;;;;;;19.86;100.00;101710.53;5087675;28;20036;-82
2022/07/27 07:13:06;;;;;;;5.65;1.40;;;;;;;19.80;100.00;101716.72;5065533;28;20075;-82
2022/07/27 07:15:32;;;;;;;8.98;1.30;;;;;;;20.11;100.00;101721.84;5052866;28;20089;-82
2022/07/27 07:18:01;;;;;;;5.28;1.30;;;;;;;20.97;100.00;101720.06;5080897;28;20035;-84
2022/07/27 07:20:27;;;;;;;3.05;1.10;;;;;;;20.20;100.00;101726.41;5046148;28;20066;-84
2022/07/27 07:22:52;;;;;;;8.48;1.15;;;;;;;20.92;96.42;101728.91;5045873;28;20035;-84
2022/07/27 07:25:18;;;;;;;4.03;1.00;;;;;;;20.93;95.60;101731.53;5012926;28;20119;-84
2022/07/27 07:27:43;;;;;;;4.82;1.10;;;;;;;20.77;97.03;101725.03;5061321;28;20386;-84
2022/07/27 07:30:09;;;;;;;6.32;1.02;;;;;;;20.38;97.36;101730.03;5077670;28;20435;-83
2022/07/27 07:32:35;;;;;;;4.25;1.30;;;;;;;20.80;96.43;101728.34;5048390;28;20052;-83
2022/07/27 07:35:02;;;;;;;6.43;1.05;;;;;;;20.82;97.39;101726.25;5046050;28;20040;-84
2022/07/27 07:37:28;;;;;;;5.32;1.40;;;;;;;21.01;97.95;101721.47;5043491;28;20115;-84
2022/07/27 07:39:53;;;;;;;4.70;1.63;;;;;;;21.17;97.87;101731.75;5062225;28;20083;-84
2022/07/27 07:42:19;;;;;;;10.20;1.60;;;;;;;21.89;92.15;101737.66;5046065;28;20058;-83
2022/07/27 07:44:44;;;;;;;7.63;1.42;;;;;;;20.93;96.05;101731.53;5080040;28;20033;-82
2022/07/27 07:47:11;;;;;;;5.85;1.15;;;;;;;21.29;nan;101734.06;5077536;28;20093;-82
2022/07/27 07:49:37;;;;;;;7.60;1.40;;;;;;;19.74;100.00;101734.91;5066287;28;20111;-83
2022/07/27 07:52:02;;;;;;;2.08;1.25;;;;;;;19.16;100.00;101735.34;5094479;28;20122;-83
2022/07/27 07:54:28;;;;;;;9.30;1.85;;;;;;;19.05;100.00;101734.56;5086060;28;20028;-83
2022/07/27 07:56:53;;;;;;;4.22;1.15;;;;;;;19.03;100.00;101733.81;5074351;28;20497;-83
2022/07/27 07:59:19;;;;;;;4.03;1.38;;;;;;;20.13;100.00;101739.22;5049504;28;20106;-82
2022/07/27 08:01:44;;;;;;;4.43;1.58;;;;;;;20.86;100.00;101736.03;5065717;28;20036;-82
2022/07/27 08:04:10;;;;;;;2.45;0.90;;;;;;;22.07;88.50;101747.75;5098508;28;20051;-83
2022/07/27 08:06:38;;;;;;;1.88;0.80;;;;;;;22.20;84.40;101734.13;5062727;28;20032;-83
2022/07/27 08:09:04;;;;;;;7.93;1.00;;;;;;;21.80;85.63;101742.34;5079526;28;20124;-82
2022/07/27 08:11:30;;;;;;;1.92;1.02;;;;;;;22.45;86.29;101735.00;5099393;28;20028;-83
2022/07/27 08:13:55;;;;;;;9.00;1.52;;;;;;;22.59;85.23;101744.53;5061615;28;20107;-83
2022/07/27 08:16:21;;;;;;;6.80;1.17;;;;;;;22.78;84.88;101746.06;5068320;28;20036;-84
2022/07/27 08:18:46;;;;;;;4.57;1.02;;;;;;;22.62;81.40;101741.41;5065006;28;20035;-83
2022/07/27 08:21:12;;;;;;;5.10;1.10;;;;;;;22.51;82.94;101747.34;5047431;28;20479;-83
2022/07/27 08:23:38;;;;;;;6.68;0.90;;;;;;;21.85;83.75;101748.28;5064124;28;20039;-83
2022/07/27 08:26:04;;;;;;;2.35;0.88;;;;;;;22.11;81.93;101751.94;5098967;28;20030;-83
2022/07/27 08:28:30;;;;;;;5.93;1.15;;;;;;;22.37;78.46;101751.75;5031364;28;20433;-84
2022/07/27 08:30:56;;;;;;;2.13;0.80;;;;;;;21.48;80.49;101755.22;5098300;28;20040;-83
2022/07/27 08:33:21;;;;;;;7.57;1.00;;;;;;;20.54;87.09;101756.19;5047513;28;20287;-83
2022/07/27 08:35:47;;;;;;;4.65;0.70;;;;;;;19.59;87.06;101745.69;5081022;28;20055;-82
2022/07/27 08:38:13;;;;;;;2.17;0.60;;;;;;;19.29;88.55;101733.94;5064072;28;20047;-82
2022/07/27 08:40:39;;;;;;;6.97;0.85;;;;;;;20.02;88.61;101738.47;5081766;28;20028;-82
2022/07/27 08:43:06;;;;;;;2.80;0.57;;;;;;;19.92;85.55;101734.91;5091727;28;20448;-82
2022/07/27 08:45:33;;;;;;;4.00;0.75;;;;;;;21.67;76.30;101728.91;5087997;28;20047;-83
2022/07/27 08:47:58;;;;;;;2.80;0.63;;;;;;;22.05;75.10;101736.75;5082172;28;20032;-82
2022/07/27 08:50:29;;;;;;;3.17;0.70;;;;;;;22.95;69.28;101744.06;5083069;28;20054;-83
2022/07/27 08:52:58;;;;;;;5.05;0.68;;;;;;;22.70;64.70;101741.38;5102205;28;20028;-83
2022/07/27 08:55:25;;;;;;;4.60;0.50;;;;;;;23.21;64.11;101742.94;5085360;28;20039;-82
2022/07/27 08:57:51;;;;;;;1.95;0.60;;;;;;;23.44;60.83;101737.38;5083297;28;20034;-83
2022/07/27 09:00:18;;;;;;;3.55;0.75;;;;;;;23.59;60.13;101745.81;5079288;28;20099;-84
2022/07/27 09:02:45;;;;;;;4.47;0.52;;;;;;;22.91;60.61;101737.97;5075480;28;20024;-83
2022/07/27 09:05:11;;;;;;;4.65;0.55;;;;;;;23.75;59.20;101734.50;5066820;28;20391;-84
2022/07/27 09:07:36;;;;;;;4.85;0.70;;;;;;;23.69;60.35;101729.66;5046389;28;20056;-84
2022/07/27 09:10:04;;;;;;;5.65;0.60;;;;;;;22.80;66.98;101724.41;5082820;28;20404;-83
2022/07/27 09:12:30;;;;;;;2.30;0.52;;;;;;;22.22;70.00;101734.84;5083085;28;20028;-83
2022/07/27 09:15:13;;;;;;;2.85;0.60;;;;;;;21.88;71.32;101740.63;5083051;28;20148;-84
2022/07/27 09:17:40;;;;;;;5.07;0.55;;;;;;;;;;5064265;28;20441;-83
2022/07/27 09:20:09;;;;;;;2.13;0.70;;;;;;;20.17;79.49;101730.41;5082871;28;20137;-82
2022/07/27 09:22:41;;;;;;;7.75;0.85;;;;;;;20.31;75.93;101744.75;5101114;28;20051;-83
2022/07/27 09:25:08;;;;;;;;;;;;;;;19.86;79.56;101746.69;5068701;28;20035;-82
2022/07/27 09:27:34;;;;;;;1.92;0.60;;;;;;;20.31;79.66;101744.75;5067504;28;19919;-83
2022/07/27 09:30:11;;;;;;;5.03;0.90;;;;;;;20.31;80.90;101747.53;5069558;28;20032;-83
2022/07/27 09:32:37;;;;;;;4.93;0.80;;;;;;;;;;5084683;28;20048;-83
2022/07/27 09:35:17;;;;;;;8.43;0.70;;;;;;;20.46;79.92;101743.09;5121601;28;20077;-83
2022/07/27 09:37:43;;;;;;;4.05;0.68;;;;;;;21.28;78.03;101745.38;5087259;28;20032;-83
2022/07/27 09:40:14;;;;;;;2.55;0.85;;;;;;;22.04;75.95;101740.63;5050858;28;20043;-83
2022/07/27 09:42:40;;;;;;;5.95;0.70;;;;;;;21.36;77.99;101748.19;5102347;28;20058;-84
2022/07/27 09:45:35;;;;;;;2.92;0.70;;;;;;;21.24;78.33;101741.22;5067700;28;20107;-83
2022/07/27 09:48:16;;;;;;;4.15;0.63;;;;;;;21.21;76.07;101744.31;5063557;28;20036;-83
2022/07/27 09:51:02;;;;;;;8.07;0.77;;;;;;;21.46;77.57;101757.28;5055988;28;20031;-84
2022/07/27 09:53:31;;;;;;;3.30;0.68;;;;;;;21.60;75.27;101752.97;5084210;28;20038;-84
2022/07/27 09:56:05;;;;;;;4.85;0.70;;;;;;;22.82;68.51;101757.72;5066698;28;20050;-83
2022/07/27 09:58:45;;;;;;;6.55;0.80;;;;;;;22.10;70.57;101752.97;5063789;28;20033;-83
2022/07/27 10:01:13;;;;;;;5.32;0.98;;;;;;;21.36;72.15;101758.47;5063842;28;20033;-84
2022/07/27 10:03:41;;;;;;;3.83;0.57;;;;;;;22.03;68.90;101747.22;5064139;28;20028;-84
2022/07/27 10:06:11;;;;;;;3.88;0.60;;;;;;;22.37;68.42;101749.84;5048545;28;20032;-84
2022/07/27 10:08:38;;;;;;;4.05;0.80;;;;;;;22.58;66.74;101742.81;5034112;28;20167;-83
2022/07/27 10:11:05;;;;;;;8.00;0.73;;;;;;;23.88;60.70;101741.44;5083746;28;20039;-84
2022/07/27 10:13:31;;;;;;;4.38;0.70;;;;;;;23.31;60.05;101732.38;5083947;28;20528;-84
2022/07/27 10:15:58;;;;;;;3.08;0.70;;;;;;;21.95;63.03;101736.94;5065973;28;20074;-83
2022/07/27 10:18:53;;;;;;;4.72;0.80;;;;;;;22.29;65.94;101735.91;5066566;28;20036;-84
2022/07/27 10:21:19;;;;;;;4.05;0.80;;;;;;;22.88;67.23;101738.34;5082792;28;20420;-83
2022/07/27 10:24:25;;;;;;;5.28;0.80;;;;;;;22.84;64.11;101744.44;5082363;28;20116;-83
2022/07/27 10:26:50;;;;;;;9.45;0.80;;;;;;;22.99;60.43;101731.50;5062464;28;20103;-83
2022/07/27 10:29:18;;;;;;;2.33;0.90;;;;;;;22.83;62.66;101732.41;5078904;28;20039;-83
2022/07/27 10:31:52;;;;;;;2.42;0.60;;;;;;;21.55;70.80;101730.31;5086039;28;20051;-82
2022/07/27 10:34:32;;;;;;;2.47;0.52;;;;;;;21.82;67.65;101740.28;5068757;28;20047;-84
2022/07/27 10:37:07;;;;;;;3.47;0.80;;;;;;;21.20;70.98;101737.00;5076317;28;20035;-81
2022/07/27 10:39:36;;;;;;;4.47;0.88;;;;;;;20.97;72.47;101731.19;5065079;28;20081;-81
2022/07/27 10:42:29;;;;;;;4.63;0.60;;;;;;;22.38;68.61;101726.47;5076075;28;20035;-82
2022/07/27 10:45:04;;;;;;;3.85;0.60;;;;;;;22.41;65.88;101724.38;5086390;28;20064;-82
2022/07/27 10:47:36;;;;;;;2.83;0.68;;;;;;;22.55;57.87;101718.06;5090706;28;20032;-81
2022/07/27 10:50:14;;;;;;;;;;;;;;;22.43;64.96;101727.84;5081186;28;20043;-83
2022/07/27 10:52:46;;;;;;;7.90;0.90;;;;;;;21.89;67.39;101722.84;5083998;28;19938;-82
2022/07/27 10:55:31;;;;;;;1.98;0.75;;;;;;;21.13;69.09;101722.03;5084294;28;20068;-82
2022/07/27 10:58:17;;;;;;;3.03;0.75;;;;;;;21.33;69.12;101729.03;5066304;28;20118;-82
2022/07/27 11:00:48;;;;;;;3.20;0.70;;;;;;;21.55;68.09;101724.75;5083977;28;20205;-82
2022/07/27 11:03:26;;;;;;;1.83;0.73;;;;;;;21.50;68.16;101724.41;5085427;28;20032;-82
2022/07/27 11:05:55;;;;;;;5.70;0.80;;;;;;;22.03;66.19;101714.63;5070103;28;20047;-81
2022/07/27 11:08:31;;;;;;;2.70;0.60;;;;;;;22.73;60.96;101717.81;5065179;28;20103;-82
2022/07/27 11:10:57;;;;;;;4.90;0.70;;;;;;;21.97;62.43;101718.16;5064303;28;20039;-81
2022/07/27 11:13:24;;;;;;;13.55;0.95;;;;;;;22.36;61.29;101710.94;5082089;28;20028;-81
2022/07/27 11:16:02;;;;;;;6.28;0.70;;;;;;;22.86;59.00;101711.66;5101318;28;20047;-81
2022/07/27 11:18:33;;;;;;;1.70;0.60;;;;;;;22.82;57.42;101713.06;5104540;28;20040;-82
2022/07/27 11:21:16;;;;;;;2.60;0.57;;;;;;;23.81;53.30;101713.31;5104424;28;20028;-82
2022/07/27 11:23:43;;;;;;;3.58;0.60;;;;;;;23.09;53.03;101707.00;5104264;28;20023;-81
2022/07/27 11:26:09;;;;;;;1.80;0.55;;;;;;;22.87;52.77;101702.19;5060684;28;20033;-83